Time;durP1;ratioP1;P1;durP2;ratioP2;P2;SDS_P1;SDS_P2;PMS_P1;PMS_P2;Temp;Humidity;BMP_temperature;BMP_pressure;BME280_temperature;BME280_humidity;BME280_pressure;Samples;Min_cycle;Max_cycle;Signal;HPM_P1;HPM_P2
2022/07/15 00:01:39;;;;;;;4.35;2.70;;;;;;;21.12;57.10;96869.16;5032226;28;20103;-60
2022/07/15 00:04:04;;;;;;;3.60;2.28;;;;;;;21.04;57.72;96869.75;5040207;28;20025;-62
2022/07/15 00:06:30;;;;;;;7.25;2.97;;;;;;;21.05;57.96;96863.75;5040853;28;20030;-62
2022/07/15 00:08:55;;;;;;;5.15;2.40;;;;;;;21.04;57.16;96864.16;5032154;28;20052;-62
2022/07/15 00:11:21;;;;;;;8.38;2.75;;;;;;;21.04;56.99;96856.59;5031874;28;20028;-59
2022/07/15 00:13:46;;;;;;;5.97;2.17;;;;;;;20.91;57.43;96858.50;5031699;28;20037;-59
2022/07/15 00:16:13;;;;;;;5.75;2.45;;;;;;;20.75;57.68;96854.44;5031509;28;20036;-62
2022/07/15 00:18:40;;;;;;;5.07;2.75;;;;;;;20.64;58.33;96862.25;5031735;28;20037;-61
2022/07/15 00:21:05;;;;;;;7.72;3.08;;;;;;;20.73;58.32;96870.00;5031362;28;20506;-61
2022/07/15 00:23:31;;;;;;;7.15;2.83;;;;;;;20.70;57.88;96866.06;5031705;28;20044;-60
2022/07/15 00:25:56;;;;;;;4.82;2.80;;;;;;;20.79;57.39;96865.50;5031038;28;20021;-60
2022/07/15 00:28:24;;;;;;;4.18;2.20;;;;;;;20.90;56.68;96865.25;5030230;28;20104;-60
2022/07/15 00:30:50;;;;;;;6.75;2.50;;;;;;;20.59;57.63;96866.25;5016911;28;20513;-61
2022/07/15 00:33:16;;;;;;;7.25;3.20;;;;;;;20.30;59.48;96862.50;5043119;28;20343;-59
2022/07/15 00:35:41;;;;;;;4.03;2.38;;;;;;;20.37;59.89;96865.16;5031035;28;20037;-61
2022/07/15 00:38:09;;;;;;;8.05;2.88;;;;;;;20.29;59.17;96866.47;5031236;28;20033;-60
2022/07/15 00:40:46;;;;;;;5.35;2.42;;;;;;;20.36;59.15;96866.34;5030099;28;20025;-62
2022/07/15 00:43:12;;;;;;;4.97;2.40;;;;;;;20.32;58.37;96857.28;5031025;28;20040;-60
2022/07/15 00:45:38;;;;;;;7.72;2.85;;;;;;;20.27;58.03;96863.34;5031131;28;20517;-61
2022/07/15 00:48:04;;;;;;;3.97;2.55;;;;;;;20.11;58.98;96862.03;5030777;28;20034;-60
2022/07/15 00:50:31;;;;;;;8.82;2.88;;;;;;;20.14;59.27;96865.97;5014802;28;20449;-59
2022/07/15 00:53:10;;;;;;;8.85;2.53;;;;;;;20.02;59.39;96856.25;5031597;28;20071;-59
2022/07/15 00:55:43;;;;;;;5.25;2.78;;;;;;;19.98;59.03;96861.09;5030949;28;20071;-60
2022/07/15 00:58:13;;;;;;;5.72;2.60;;;;;;;20.07;59.26;96863.34;5031393;28;20440;-58
2022/07/15 01:00:41;;;;;;;4.20;2.65;;;;;;;20.21;57.62;96857.50;5031222;28;20096;-59
2022/07/15 01:03:07;;;;;;;8.50;2.83;;;;;;;20.09;58.21;96847.00;5031048;28;20075;-61
2022/07/15 01:05:33;;;;;;;8.38;2.72;;;;;;;20.11;58.98;96858.47;5022402;28;20062;-61
2022/07/15 01:07:59;;;;;;;4.65;2.65;;;;;;;20.46;57.96;96865.34;5021107;28;20410;-61
2022/07/15 01:10:24;;;;;;;8.85;2.97;;;;;;;20.42;56.80;96868.22;5020922;28;20120;-60
2022/07/15 01:12:50;;;;;;;5.47;2.95;;;;;;;20.60;57.17;96858.72;5031378;28;20078;-61
2022/07/15 01:15:17;;;;;;;11.57;2.90;;;;;;;20.36;56.99;96863.56;5031172;28;20490;-61
2022/07/15 01:17:44;;;;;;;8.27;2.80;;;;;;;20.01;58.25;96855.47;5022091;28;20042;-60
2022/07/15 01:20:12;;;;;;;4.70;2.90;;;;;;;19.84;58.79;96853.81;5019420;28;20029;-56
2022/07/15 01:22:37;;;;;;;6.75;2.60;;;;;;;19.88;58.52;96859.31;5011331;28;20437;-58
2022/07/15 01:25:04;;;;;;;6.53;2.70;;;;;;;19.85;58.47;96858.16;5011532;28;20025;-61
2022/07/15 01:27:29;;;;;;;6.10;3.00;;;;;;;19.72;59.22;96857.19;5018016;28;20034;-59
2022/07/15 01:29:55;;;;;;;12.25;3.03;;;;;;;19.63;59.40;96858.50;5010971;28;20034;-60
2022/07/15 01:32:21;;;;;;;10.18;2.88;;;;;;;19.58;59.69;96858.22;5012502;28;20109;-62
2022/07/15 01:34:48;;;;;;;6.72;3.08;;;;;;;19.55;60.22;96859.03;5022338;28;20034;-59
2022/07/15 01:37:14;;;;;;;5.63;3.10;;;;;;;19.66;60.41;96863.22;5030200;28;20041;-61
2022/07/15 01:39:40;;;;;;;7.78;3.00;;;;;;;19.89;59.43;96858.88;5027338;28;20124;-60
2022/07/15 01:42:06;;;;;;;12.25;2.60;;;;;;;20.24;58.03;96857.44;5010912;28;20061;-59
2022/07/15 01:44:31;;;;;;;5.20;2.33;;;;;;;20.54;57.21;96857.63;5012588;28;20212;-62
2022/07/15 01:46:56;;;;;;;5.78;2.83;;;;;;;20.61;55.88;96855.50;5020641;28;20383;-63
2022/07/15 01:49:22;;;;;;;6.15;2.95;;;;;;;20.36;55.95;96863.56;5030028;28;20041;-60
2022/07/15 01:51:52;;;;;;;8.48;2.60;;;;;;;20.25;56.63;96853.44;5032270;28;20033;-63
2022/07/15 01:54:17;;;;;;;11.80;3.03;;;;;;;20.07;56.14;96846.66;5031991;28;20037;-62
2022/07/15 01:56:43;;;;;;;4.05;2.00;;;;;;;20.18;56.35;96853.56;5031054;28;20040;-61
2022/07/15 01:59:09;;;;;;;6.43;2.40;;;;;;;20.12;55.59;96852.50;5033478;28;20031;-61
2022/07/15 02:01:35;;;;;;;4.25;2.28;;;;;;;20.13;57.23;96854.09;5024660;28;20034;-62
2022/07/15 02:04:01;;;;;;;5.68;2.83;;;;;;;20.19;55.37;96852.38;5021325;28;20052;-61
2022/07/15 02:06:26;;;;;;;5.68;2.53;;;;;;;20.16;55.36;96852.44;5019463;28;20084;-64
2022/07/15 02:08:52;;;;;;;4.43;2.42;;;;;;;20.00;54.45;96853.13;5018891;28;20030;-61
2022/07/15 02:11:17;;;;;;;6.75;2.70;;;;;;;20.05;56.31;96856.19;5022450;28;20033;-60
2022/07/15 02:13:43;;;;;;;7.05;2.42;;;;;;;20.20;56.16;96858.69;5015154;28;20042;-59
2022/07/15 02:16:08;;;;;;;8.13;3.05;;;;;;;20.15;53.95;96862.78;5022470;28;20041;-60
2022/07/15 02:18:34;;;;;;;8.68;2.58;;;;;;;19.93;55.25;96859.59;5032279;28;20039;-61
2022/07/15 02:21:00;;;;;;;5.22;2.60;;;;;;;19.78;55.50;96853.50;5022010;28;20030;-62
2022/07/15 02:23:26;;;;;;;6.70;2.38;;;;;;;19.64;56.85;96846.19;5032618;28;20040;-61
2022/07/15 02:25:51;;;;;;;8.48;2.58;;;;;;;19.56;56.57;96850.28;5033907;28;20378;-60
2022/07/15 02:28:17;;;;;;;6.68;2.88;;;;;;;19.47;57.41;96841.72;5034161;28;20049;-57
2022/07/15 02:30:43;;;;;;;7.80;3.08;;;;;;;19.29;58.30;96844.78;5033856;28;20038;-60
2022/07/15 02:33:09;;;;;;;4.50;2.72;;;;;;;19.14;59.35;96858.13;5027781;28;20453;-62
2022/07/15 02:35:37;;;;;;;7.10;3.17;;;;;;;19.16;59.26;96864.03;5025543;28;20033;-62
2022/07/15 02:38:02;;;;;;;4.78;2.63;;;;;;;19.24;58.56;96865.47;5031831;28;20045;-60
2022/07/15 02:40:30;;;;;;;7.28;2.90;;;;;;;19.34;58.01;96862.94;5025389;28;20032;-57
2022/07/15 02:42:58;;;;;;;7.90;2.30;;;;;;;19.47;58.10;96861.16;5025313;28;20486;-63
2022/07/15 02:45:25;;;;;;;8.07;2.58;;;;;;;19.44;57.21;96862.78;5015822;28;20096;-62
2022/07/15 02:47:51;;;;;;;8.65;2.63;;;;;;;19.59;58.13;96871.69;5018182;28;20040;-62
2022/07/15 02:50:17;;;;;;;4.97;2.53;;;;;;;19.52;57.63;96866.25;5025429;28;20104;-61
2022/07/15 02:52:43;;;;;;;7.68;2.92;;;;;;;19.24;58.38;96861.91;5025829;28;20105;-62
2022/07/15 02:55:10;;;;;;;7.85;2.70;;;;;;;19.13;59.39;96869.63;5022188;28;20113;-60
2022/07/15 02:57:36;;;;;;;7.05;2.95;;;;;;;19.08;59.19;96871.66;5013736;28;20379;-60
2022/07/15 03:00:05;;;;;;;7.88;3.00;;;;;;;19.08;59.78;96865.31;5015418;28;20030;-62
2022/07/15 03:02:30;;;;;;;9.07;3.00;;;;;;;19.08;59.40;96871.66;5022614;28;20029;-62
2022/07/15 03:04:56;;;;;;;11.43;2.97;;;;;;;18.97;60.99;96878.56;5021787;28;20372;-61
2022/07/15 03:07:22;;;;;;;4.70;2.25;;;;;;;18.86;61.37;96873.19;5020046;28;20033;-63
2022/07/15 03:09:48;;;;;;;5.68;2.88;;;;;;;18.96;60.38;96871.44;5021748;28;20496;-61
2022/07/15 03:12:13;;;;;;;6.82;2.70;;;;;;;18.91;60.56;96875.50;5019578;28;20421;-63
2022/07/15 03:14:40;;;;;;;7.47;2.80;;;;;;;19.02;61.18;96878.91;5021734;28;20057;-63
2022/07/15 03:17:05;;;;;;;6.18;3.00;;;;;;;19.33;60.18;96880.84;5015134;28;20113;-63
2022/07/15 03:19:31;;;;;;;6.65;3.00;;;;;;;19.33;59.47;96876.06;5024355;28;20129;-62
2022/07/15 03:21:56;;;;;;;5.53;2.85;;;;;;;19.38;60.51;96878.38;5024385;28;20033;-63
2022/07/15 03:24:22;;;;;;;5.50;2.50;;;;;;;19.54;59.42;96880.50;5014719;28;20034;-62
2022/07/15 03:26:47;;;;;;;7.45;2.63;;;;;;;19.20;58.45;96875.06;5018221;28;20033;-62
2022/07/15 03:29:15;;;;;;;5.70;3.10;;;;;;;19.31;58.72;96872.91;5034033;28;20065;-63
2022/07/15 03:31:42;;;;;;;6.05;2.58;;;;;;;19.22;58.09;96867.13;5029023;28;20109;-63
2022/07/15 03:34:09;;;;;;;4.07;2.25;;;;;;;18.98;57.94;96866.25;5021134;28;20025;-63
2022/07/15 03:36:38;;;;;;;6.15;2.50;;;;;;;18.64;57.56;96875.44;5028025;28;20513;-62
2022/07/15 03:39:05;;;;;;;8.23;2.90;;;;;;;18.46;58.12;96870.88;5013575;28;20105;-63
2022/07/15 03:41:31;;;;;;;8.18;2.67;;;;;;;18.54;57.42;96872.34;5013556;28;20093;-62
2022/07/15 03:43:56;;;;;;;4.28;2.38;;;;;;;18.52;57.72;96876.75;5022725;28;20079;-62
2022/07/15 03:46:22;;;;;;;9.00;2.70;;;;;;;18.39;57.66;96870.97;5015706;28;20053;-61
2022/07/15 03:48:47;;;;;;;5.72;2.50;;;;;;;18.39;57.11;96868.19;5021031;28;20083;-62
2022/07/15 03:51:13;;;;;;;6.25;2.60;;;;;;;18.32;58.03;96876.59;5028678;28;20562;-62
2022/07/15 03:53:38;;;;;;;6.00;2.65;;;;;;;18.34;57.96;96868.63;5023858;28;20026;-60
2022/07/15 03:56:04;;;;;;;6.63;2.50;;;;;;;18.25;58.30;96871.13;5017487;28;20036;-60
2022/07/15 03:58:29;;;;;;;9.30;2.72;;;;;;;18.17;58.70;96875.16;5013142;28;20104;-61
2022/07/15 04:00:54;;;;;;;6.90;2.22;;;;;;;18.15;58.27;96873.59;5013238;28;20087;-63
2022/07/15 04:03:20;;;;;;;6.93;2.70;;;;;;;18.14;57.92;96871.25;5013990;28;20491;-58
2022/07/15 04:05:45;;;;;;;6.70;2.55;;;;;;;18.18;59.13;96877.53;5023529;28;20034;-61
2022/07/15 04:08:11;;;;;;;5.80;2.20;;;;;;;18.11;58.49;96878.41;5021245;28;20423;-59
2022/07/15 04:10:36;;;;;;;8.25;2.47;;;;;;;18.05;58.18;96874.50;5023281;28;20417;-60
2022/07/15 04:13:02;;;;;;;7.40;2.80;;;;;;;18.05;57.85;96871.72;5032265;28;20033;-61
2022/07/15 04:15:28;;;;;;;9.68;2.63;;;;;;;18.03;58.10;96876.13;5023121;28;20370;-61
2022/07/15 04:17:53;;;;;;;7.32;2.65;;;;;;;17.98;57.52;96877.34;5029086;28;20040;-62
2022/07/15 04:20:20;;;;;;;8.02;2.53;;;;;;;17.87;58.35;96874.69;5023522;28;20045;-60
2022/07/15 04:22:49;;;;;;;5.65;2.65;;;;;;;17.85;58.54;96879.84;5023575;28;20033;-63
2022/07/15 04:25:19;;;;;;;5.22;1.80;;;;;;;17.90;58.69;96886.94;5028565;28;20513;-62
2022/07/15 04:27:47;;;;;;;5.90;2.47;;;;;;;17.94;57.81;96888.47;5022204;28;20033;-62
2022/07/15 04:30:13;;;;;;;7.43;2.58;;;;;;;17.93;58.18;96881.38;5015812;28;20038;-61
2022/07/15 04:32:38;;;;;;;5.88;3.47;;;;;;;17.98;57.44;96873.78;5030651;28;20514;-61
2022/07/15 04:35:05;;;;;;;6.13;2.60;;;;;;;17.91;57.74;96886.50;5023523;28;20053;-62
2022/07/15 04:37:30;;;;;;;6.45;2.50;;;;;;;17.90;57.64;96884.16;5027338;28;20112;-61
2022/07/15 04:39:56;;;;;;;7.55;2.25;;;;;;;17.96;56.97;96888.84;5019889;28;20132;-62
2022/07/15 04:42:22;;;;;;;4.53;2.40;;;;;;;17.95;56.89;96892.00;5020449;28;20105;-63
2022/07/15 04:44:47;;;;;;;7.03;2.45;;;;;;;17.94;57.25;96887.69;5013180;28;20037;-63
2022/07/15 04:47:13;;;;;;;5.13;2.08;;;;;;;18.09;57.12;96891.88;5013296;28;20030;-62
2022/07/15 04:52:24;;;;;;;5.30;1.92;;;;;;;18.04;56.79;96895.13;5019606;28;20029;-61
2022/07/15 04:54:50;;;;;;;7.05;2.13;;;;;;;18.07;56.39;96893.50;5022633;28;20229;-62
2022/07/15 04:57:15;;;;;;;7.57;1.90;;;;;;;18.21;56.02;96884.25;5015681;28;20112;-61
2022/07/15 04:59:41;;;;;;;6.18;2.33;;;;;;;18.02;56.44;96880.06;5016128;28;20127;-67
2022/07/15 05:02:06;;;;;;;12.02;2.50;;;;;;;18.05;56.51;96890.34;5025350;28;20549;-60
2022/07/15 05:04:32;;;;;;;11.30;2.35;;;;;;;18.09;56.69;96886.31;5021222;28;20040;-61
2022/07/15 05:06:58;;;;;;;6.25;2.13;;;;;;;18.07;55.95;96894.28;5011751;28;20049;-59
2022/07/15 05:09:23;;;;;;;9.63;2.17;;;;;;;17.93;55.96;96892.44;5011711;28;20057;-60
2022/07/15 05:11:49;;;;;;;5.82;2.00;;;;;;;17.94;56.58;96896.78;5011570;28;20033;-59
2022/07/15 05:14:14;;;;;;;8.55;2.22;;;;;;;17.93;57.67;96897.19;5027018;28;20496;-61
2022/07/15 05:16:40;;;;;;;4.65;2.17;;;;;;;18.04;55.74;96886.81;5013834;28;20108;-61
2022/07/15 05:19:06;;;;;;;7.60;2.38;;;;;;;17.99;57.01;96892.78;5022417;28;20037;-61
2022/07/15 05:21:31;;;;;;;5.40;1.80;;;;;;;18.40;55.35;96891.97;5015214;28;20108;-60
2022/07/15 05:23:57;;;;;;;6.10;2.45;;;;;;;18.53;55.65;96887.44;5019504;28;20112;-58
2022/07/15 05:26:22;;;;;;;9.05;2.15;;;;;;;18.77;55.43;96889.53;5014650;28;20034;-60
2022/07/15 05:28:47;;;;;;;6.30;1.95;;;;;;;19.25;53.32;96894.03;5019538;28;20109;-59
2022/07/15 05:31:13;;;;;;;3.72;1.63;;;;;;;19.15;53.21;96895.75;5013081;28;20034;-62
2022/07/15 05:33:39;;;;;;;4.57;1.85;;;;;;;19.25;53.17;96905.94;5021539;28;20030;-60
2022/07/15 05:36:04;;;;;;;6.70;1.90;;;;;;;19.34;52.74;96893.50;5025664;28;20113;-59
2022/07/15 05:38:30;;;;;;;4.63;1.75;;;;;;;19.44;52.39;96900.88;5027571;28;20406;-57
2022/07/15 05:40:56;;;;;;;8.30;2.00;;;;;;;19.20;53.04;96900.06;5024764;28;20033;-59
2022/07/15 05:43:21;;;;;;;9.15;1.98;;;;;;;18.61;55.62;96904.00;5030758;28;20036;-59
2022/07/15 05:45:47;;;;;;;7.00;1.83;;;;;;;18.78;55.35;96905.75;5030453;28;20103;-60
2022/07/15 05:48:12;;;;;;;6.07;1.98;;;;;;;18.91;55.35;96906.00;5026731;28;20101;-59
2022/07/15 05:50:38;;;;;;;4.30;2.15;;;;;;;18.89;54.51;96909.19;5024843;28;20121;-60
2022/07/15 05:53:03;;;;;;;4.88;1.83;;;;;;;18.70;54.08;96910.59;5020449;28;20053;-59
2022/07/15 05:55:29;;;;;;;7.55;1.85;;;;;;;18.80;55.41;96910.88;5033199;28;20386;-60
2022/07/15 05:57:55;;;;;;;6.28;1.83;;;;;;;19.23;53.60;96930.56;5027358;28;20678;-57
2022/07/15 06:00:20;;;;;;;5.05;1.77;;;;;;;18.96;54.21;96915.84;5046777;28;20033;-57
2022/07/15 06:02:45;;;;;;;4.85;2.08;;;;;;;19.71;51.34;96927.84;5030019;28;20076;-59
2022/07/15 06:05:11;;;;;;;8.55;2.00;;;;;;;20.15;50.64;96923.16;5023704;28;20042;-58
2022/07/15 06:07:37;;;;;;;9.18;1.80;;;;;;;19.48;51.71;96930.19;5015533;28;20117;-59
2022/07/15 06:10:04;;;;;;;6.97;1.70;;;;;;;19.22;53.11;96928.97;5020303;28;20025;-57
2022/07/15 06:12:29;;;;;;;7.03;2.50;;;;;;;19.74;51.78;96935.38;5025545;28;20069;-58
2022/07/15 06:14:55;;;;;;;6.65;1.73;;;;;;;20.43;50.60;96930.97;5020655;28;20053;-59
2022/07/15 06:17:20;;;;;;;8.10;1.90;;;;;;;21.22;49.18;96930.59;5019108;28;20048;-59
2022/07/15 06:19:46;;;;;;;6.10;1.73;;;;;;;20.75;48.06;96929.59;5018500;28;20104;-59
2022/07/15 06:22:12;;;;;;;6.63;1.80;;;;;;;21.24;48.75;96928.16;5025804;28;20494;-59
2022/07/15 06:24:37;;;;;;;6.20;2.03;;;;;;;21.57;47.39;96929.81;5015480;28;20175;-60
2022/07/15 06:27:03;;;;;;;5.28;1.73;;;;;;;22.43;45.30;96926.09;5025348;28;20101;-60
2022/07/15 06:29:28;;;;;;;6.07;1.70;;;;;;;23.29;44.23;96924.44;5014834;28;20113;-60
2022/07/15 06:31:53;;;;;;;7.65;2.00;;;;;;;22.43;44.26;96932.44;5024988;28;20048;-61
2022/07/15 06:34:19;;;;;;;5.75;1.77;;;;;;;23.15;43.68;96927.66;5022681;28;20029;-57
2022/07/15 06:36:44;;;;;;;6.07;1.70;;;;;;;22.38;43.64;96929.41;5013798;28;20045;-64
2022/07/15 06:39:10;;;;;;;8.40;1.80;;;;;;;22.02;45.13;96921.97;5013882;28;20052;-67
2022/07/15 06:41:36;;;;;;;3.67;1.70;;;;;;;22.48;44.53;96937.50;5009373;28;20072;-67
2022/07/15 06:44:04;;;;;;;5.40;1.60;;;;;;;23.83;42.78;96927.56;5008665;28;20123;-67
2022/07/15 06:46:29;;;;;;;5.63;1.67;;;;;;;25.21;38.23;96929.94;5009604;28;20080;-66
2022/07/15 06:48:56;;;;;;;5.25;1.83;;;;;;;22.87;43.26;96932.06;5004350;28;20080;-67
2022/07/15 06:51:22;;;;;;;7.20;1.70;;;;;;;21.72;46.06;96933.03;4997885;28;20091;-67
2022/07/15 06:53:47;;;;;;;7.25;2.00;;;;;;;22.27;44.01;96935.28;5006597;28;20136;-67
2022/07/15 06:56:12;;;;;;;4.82;1.45;;;;;;;22.40;45.20;96933.34;5007832;28;20050;-65
2022/07/15 06:58:38;;;;;;;8.73;2.00;;;;;;;22.25;44.99;96940.50;5015926;28;20045;-66
2022/07/15 07:01:05;;;;;;;9.20;2.30;;;;;;;21.92;44.78;96932.94;5018771;28;20072;-64
2022/07/15 07:03:30;;;;;;;5.85;1.75;;;;;;;22.63;45.25;96937.88;5021758;28;20083;-65
2022/07/15 07:05:57;;;;;;;6.60;1.90;;;;;;;24.37;40.98;96942.56;5023684;28;20053;-66
2022/07/15 07:08:22;;;;;;;5.75;2.08;;;;;;;24.41;40.67;96938.38;5018086;28;20049;-66
2022/07/15 07:10:47;;;;;;;7.97;1.75;;;;;;;23.40;42.06;96942.88;5019323;28;20042;-64
2022/07/15 07:13:13;;;;;;;9.90;2.30;;;;;;;22.74;44.48;96940.38;5003039;28;20041;-65
2022/07/15 07:15:38;;;;;;;8.77;2.10;;;;;;;25.14;40.20;96937.38;5022360;28;20107;-65
2022/07/15 07:18:04;;;;;;;7.38;1.90;;;;;;;24.78;39.68;96947.09;5017202;28;20072;-64
2022/07/15 07:20:29;;;;;;;7.85;1.90;;;;;;;27.51;34.82;96940.66;5017935;28;20474;-65
2022/07/15 07:22:54;;;;;;;5.50;1.90;;;;;;;26.15;38.85;96941.09;5015528;28;20140;-65
2022/07/15 07:25:20;;;;;;;3.45;1.80;;;;;;;26.03;37.73;96949.16;5007587;28;20034;-64
2022/07/15 07:27:45;;;;;;;8.05;2.10;;;;;;;23.64;42.35;96934.94;5023110;28;20389;-64
2022/07/15 07:30:11;;;;;;;11.32;2.22;;;;;;;23.99;42.88;96935.81;5018391;28;20052;-64
2022/07/15 07:32:37;;;;;;;5.45;2.03;;;;;;;23.88;42.63;96943.78;5023050;28;20061;-65
2022/07/15 07:35:03;;;;;;;4.97;2.13;;;;;;;23.46;43.86;96941.88;5006833;28;20518;-64
2022/07/15 07:37:34;;;;;;;9.50;2.10;;;;;;;24.13;42.17;96936.56;5033525;28;20124;-66
2022/07/15 07:39:59;;;;;;;6.00;2.08;;;;;;;23.88;43.41;96948.59;5022738;28;20037;-65
2022/07/15 07:42:24;;;;;;;6.90;1.88;;;;;;;23.91;41.47;96942.88;5017773;28;20115;-65
2022/07/15 07:44:50;;;;;;;3.72;1.98;;;;;;;23.42;43.70;96944.00;5023179;28;20555;-66
2022/07/15 07:47:15;;;;;;;7.93;1.90;;;;;;;23.71;44.41;96943.09;5016485;28;20038;-65
2022/07/15 07:49:41;;;;;;;10.88;4.32;;;;;;;25.44;40.76;96928.66;5016205;28;20079;-66
2022/07/15 07:52:06;;;;;;;5.03;2.13;;;;;;;23.72;42.42;96938.31;5018046;28;20044;-64
2022/07/15 07:54:32;;;;;;;5.60;2.33;;;;;;;24.69;41.09;96932.28;5030007;28;20041;-66
2022/07/15 07:56:57;;;;;;;6.97;1.98;;;;;;;24.12;42.84;96930.19;5018365;28;20046;-67
2022/07/15 07:59:23;;;;;;;6.85;2.03;;;;;;;24.40;42.26;96931.22;5005164;28;20847;-66
2022/07/15 08:01:49;;;;;;;4.45;2.28;;;;;;;24.08;41.65;96921.16;5007213;28;20069;-66
2022/07/15 08:04:15;;;;;;;4.15;1.80;;;;;;;25.32;40.33;96933.16;5021338;28;20490;-66
2022/07/15 08:06:41;;;;;;;9.27;2.45;;;;;;;24.37;42.06;96928.56;5022553;28;20053;-66
2022/07/15 08:09:06;;;;;;;9.88;2.53;;;;;;;24.13;43.37;96928.16;5002097;28;20147;-67
2022/07/15 08:11:32;;;;;;;6.03;2.25;;;;;;;24.51;42.32;96930.84;5008734;28;20136;-66
2022/07/15 08:13:57;;;;;;;6.25;2.55;;;;;;;24.56;42.79;96930.31;5002061;28;20049;-65
2022/07/15 08:16:23;;;;;;;7.95;2.70;;;;;;;24.65;41.67;96938.00;4997497;28;20061;-66
2022/07/15 08:18:48;;;;;;;7.25;2.40;;;;;;;24.86;41.94;96930.03;5009304;28;20494;-65
2022/07/15 08:21:14;;;;;;;7.35;2.25;;;;;;;24.10;43.73;96932.66;5005880;28;20049;-65
2022/07/15 08:23:40;;;;;;;10.98;2.05;;;;;;;25.65;40.19;96924.25;5014495;28;20046;-66
2022/07/15 08:26:07;;;;;;;9.98;2.75;;;;;;;25.38;39.89;96934.88;5011155;28;20125;-66
2022/07/15 08:28:33;;;;;;;6.82;2.40;;;;;;;24.58;40.74;96927.06;5020613;28;20038;-65
2022/07/15 08:30:59;;;;;;;9.45;2.40;;;;;;;25.27;41.26;96928.91;5020538;28;20052;-65
2022/07/15 08:33:24;;;;;;;7.93;2.85;;;;;;;24.96;41.15;96931.66;5018352;28;20049;-65
2022/07/15 08:35:50;;;;;;;6.97;2.50;;;;;;;25.66;39.70;96932.19;5020140;28;20042;-67
2022/07/15 08:38:15;;;;;;;5.32;2.20;;;;;;;25.81;38.39;96938.00;5006384;28;20064;-66
2022/07/15 08:40:43;;;;;;;7.18;2.35;;;;;;;26.37;38.21;96936.09;5001921;28;20062;-65
2022/07/15 08:43:10;;;;;;;6.63;2.33;;;;;;;24.75;40.82;96936.81;4997642;28;20572;-66
2022/07/15 08:45:37;;;;;;;5.88;2.22;;;;;;;25.29;40.43;96936.84;5001190;28;20073;-65
2022/07/15 08:48:05;;;;;;;7.47;2.30;;;;;;;25.03;39.65;96936.22;5000191;28;20042;-64
2022/07/15 08:50:31;;;;;;;10.40;2.63;;;;;;;25.76;39.14;96927.38;5000301;28;20066;-66
2022/07/15 08:52:57;;;;;;;5.35;2.17;;;;;;;25.66;37.86;96929.38;5007490;28;20556;-64
2022/07/15 08:55:23;;;;;;;4.32;2.20;;;;;;;25.28;38.72;96943.69;5006930;28;20065;-66
2022/07/15 08:57:52;;;;;;;9.20;2.47;;;;;;;26.44;37.29;96940.63;5001139;28;20050;-67
2022/07/15 09:00:28;;;;;;;8.23;2.53;;;;;;;27.06;35.78;96934.69;4995452;28;20056;-65
2022/07/15 09:03:04;;;;;;;3.72;2.10;;;;;;;26.47;36.25;96931.25;5015312;28;20061;-67
2022/07/15 09:05:30;;;;;;;5.93;2.58;;;;;;;26.52;34.15;96941.88;5009743;28;20487;-67
2022/07/15 09:08:08;;;;;;;6.90;2.80;;;;;;;27.21;33.98;96936.84;4996673;28;20049;-66
2022/07/15 09:10:48;;;;;;;6.50;2.38;;;;;;;26.43;35.96;96941.88;4999504;28;20048;-67
2022/07/15 09:13:30;;;;;;;7.10;1.95;;;;;;;26.39;35.09;96933.59;4999726;28;20045;-67
2022/07/15 09:16:01;;;;;;;6.20;2.20;;;;;;;26.34;35.42;96937.03;5006603;28;20041;-67
2022/07/15 09:18:30;;;;;;;6.20;2.40;;;;;;;25.34;36.68;96941.88;5007504;28;20069;-67
2022/07/15 09:20:56;;;;;;;5.32;2.00;;;;;;;27.32;33.74;96939.97;5023875;28;20376;-68
2022/07/15 09:23:29;;;;;;;6.97;2.08;;;;;;;26.80;32.31;96933.47;4998022;28;20049;-68
2022/07/15 09:25:58;;;;;;;5.85;1.90;;;;;;;28.27;31.55;96926.53;5007801;28;20077;-67
2022/07/15 09:28:38;;;;;;;7.73;2.40;;;;;;;26.60;34.44;96931.13;5014138;28;20449;-67
2022/07/15 09:33:51;;;;;;;5.10;2.50;;;;;;;26.15;36.26;96939.03;5013319;28;20065;-66
2022/07/15 09:36:21;;;;;;;4.78;2.35;;;;;;;25.87;35.72;96940.97;4999506;28;20129;-66
2022/07/15 09:39:01;;;;;;;4.45;2.20;;;;;;;25.46;37.10;96938.19;5007399;28;20041;-66
2022/07/15 09:41:40;;;;;;;4.93;2.15;;;;;;;25.75;35.96;96940.63;4998961;28;20042;-68
2022/07/15 09:44:09;;;;;;;5.28;1.90;;;;;;;26.15;34.89;96939.03;5008584;28;20038;-66
2022/07/15 09:46:44;;;;;;;;;;;;;;;25.73;34.48;96945.13;5014959;28;20433;-66
2022/07/15 09:49:22;;;;;;;5.80;2.03;;;;;;;25.76;33.83;96939.38;5024374;28;19968;-65
2022/07/15 09:51:54;;;;;;;5.18;1.92;;;;;;;26.82;32.43;96940.19;5001503;28;20090;-68
2022/07/15 09:54:25;;;;;;;5.80;2.00;;;;;;;27.26;32.60;96944.63;5001338;28;20046;-65
2022/07/15 09:56:51;;;;;;;4.60;1.60;;;;;;;27.26;33.21;96937.00;5019913;28;20184;-66
2022/07/15 09:59:17;;;;;;;4.72;2.05;;;;;;;25.85;34.77;96943.47;5007943;28;20427;-64
2022/07/15 10:01:44;;;;;;;9.48;2.20;;;;;;;25.89;35.64;96936.47;5019586;28;20049;-67
2022/07/15 10:04:10;;;;;;;6.30;2.45;;;;;;;27.15;33.70;96939.47;5005099;28;20038;-66
2022/07/15 10:06:38;;;;;;;11.88;2.28;;;;;;;25.75;37.40;96935.03;5000890;28;20045;-66
2022/07/15 10:09:06;;;;;;;10.52;2.50;;;;;;;25.48;37.16;96938.50;5006393;28;20045;-62
2022/07/15 10:11:33;;;;;;;4.55;2.38;;;;;;;26.40;35.56;96940.78;5020873;28;20064;-68
2022/07/15 10:14:37;;;;;;;5.93;2.05;;;;;;;25.53;36.51;96931.50;5018094;28;20045;-66
2022/07/15 10:17:35;;;;;;;7.93;2.20;;;;;;;27.19;34.03;96926.06;5015967;28;20053;-64
2022/07/15 10:20:07;;;;;;;5.50;2.00;;;;;;;27.87;32.82;96918.47;5020745;28;20438;-66
2022/07/15 10:22:54;;;;;;;5.60;2.25;;;;;;;28.28;31.96;96919.63;5004248;28;20046;-66
2022/07/15 10:26:14;;;;;;;7.47;2.42;;;;;;;27.08;33.72;96911.69;5002527;28;20042;-67
2022/07/15 10:28:53;;;;;;;3.85;2.03;;;;;;;27.62;33.62;96921.25;4972012;28;20557;-67
2022/07/15 10:31:20;;;;;;;;;;;;;;;27.91;33.28;96919.88;4973483;28;20057;-67
2022/07/15 10:34:06;;;;;;;6.88;2.55;;;;;;;28.00;33.77;96902.13;4978998;28;19913;-66
2022/07/15 10:36:47;;;;;;;6.03;2.00;;;;;;;28.85;31.84;96903.84;5012047;28;20054;-65
2022/07/15 10:39:20;;;;;;;4.65;2.13;;;;;;;27.04;35.71;96900.63;5020253;28;20049;-65
2022/07/15 10:42:03;;;;;;;9.95;2.70;;;;;;;26.56;35.75;96910.81;5018906;28;20042;-64
2022/07/15 10:44:48;;;;;;;5.72;1.90;;;;;;;26.49;36.32;96909.13;5017527;28;20498;-66
2022/07/15 10:47:13;;;;;;;4.30;2.25;;;;;;;27.44;34.45;96904.44;5028455;28;20403;-66
2022/07/15 10:49:46;;;;;;;6.53;2.20;;;;;;;28.30;33.18;96900.19;5022307;28;20037;-67
2022/07/15 10:52:12;;;;;;;4.50;1.98;;;;;;;27.77;33.40;96896.00;5021498;28;20292;-65
2022/07/15 10:54:41;;;;;;;5.70;2.10;;;;;;;27.42;35.05;96895.69;5012675;28;20571;-66
2022/07/15 10:57:06;;;;;;;4.90;2.27;;;;;;;26.79;36.51;96895.38;5003558;28;20050;-66
2022/07/15 10:59:41;;;;;;;8.50;1.92;;;;;;;27.74;34.67;96887.72;5003540;28;20044;-65
2022/07/15 11:02:06;;;;;;;3.75;2.20;;;;;;;27.09;35.73;96885.16;5001421;28;20101;-66
2022/07/15 11:04:33;;;;;;;5.50;2.20;;;;;;;28.16;34.37;96890.47;5015217;28;20493;-66
2022/07/15 11:09:52;;;;;;;4.15;2.20;;;;;;;28.64;32.43;96881.16;5004443;28;20132;-67
2022/07/15 11:12:20;;;;;;;8.18;2.30;;;;;;;28.86;32.24;96885.66;5007793;28;20049;-66
2022/07/15 11:15:13;;;;;;;5.72;2.50;;;;;;;29.26;32.64;96881.47;5003823;28;20049;-67
2022/07/15 11:17:43;;;;;;;10.18;2.50;;;;;;;28.26;35.51;96879.13;4999507;28;20161;-67
2022/07/15 11:20:11;;;;;;;7.45;2.50;;;;;;;28.01;36.53;96867.09;5012335;28;20101;-64
2022/07/15 11:22:41;;;;;;;7.15;2.60;;;;;;;28.60;35.58;96867.28;5001914;28;20136;-64
2022/07/15 11:25:17;;;;;;;5.47;2.30;;;;;;;28.53;35.37;96858.41;5004843;28;20049;-66
2022/07/15 11:28:14;;;;;;;9.88;2.72;;;;;;;28.03;36.55;96861.78;5014596;28;20615;-65
2022/07/15 11:30:53;;;;;;;5.88;2.33;;;;;;;27.76;37.72;96857.06;5022837;28;20073;-68
2022/07/15 11:33:21;;;;;;;5.95;2.03;;;;;;;28.40;36.61;96865.06;5015422;28;20091;-66
2022/07/15 11:35:48;;;;;;;6.72;2.35;;;;;;;28.54;33.85;96859.97;5019353;28;20038;-68
2022/07/15 11:38:14;;;;;;;9.68;2.35;;;;;;;28.95;33.97;96865.81;5008300;28;20065;-67
2022/07/15 11:46:18;;;;;;;5.60;2.47;;;;;;;29.65;33.02;96858.75;5004308;28;20074;-66
2022/07/15 11:48:43;;;;;;;3.45;1.90;;;;;;;29.55;33.27;96858.09;5007903;28;20038;-68
2022/07/15 11:51:10;;;;;;;7.22;2.35;;;;;;;29.57;33.82;96857.59;4996498;28;20042;-65